sensor_id;sensor_type;location;lat;lon;timestamp;P1;durP1;ratioP1;P2;durP2;ratioP2
1276;SDS011;631;51.024;13.826;2023-03-01T00:00:54;45.67;;;34.10;;
1276;SDS011;631;51.024;13.826;2023-03-01T00:03:25;43.78;;;34.70;;
1276;SDS011;631;51.024;13.826;2023-03-01T00:05:50;46.03;;;35.53;;
1276;SDS011;631;51.024;13.826;2023-03-01T00:08:16;49.17;;;34.77;;
1276;SDS011;631;51.024;13.826;2023-03-01T00:10:42;41.17;;;33.23;;
1276;SDS011;631;51.024;13.826;2023-03-01T00:13:07;43.83;;;33.10;;
1276;SDS011;631;51.024;13.826;2023-03-01T00:15:33;43.20;;;33.20;;
1276;SDS011;631;51.024;13.826;2023-03-01T00:18:02;45.13;;;34.38;;
1276;SDS011;631;51.024;13.826;2023-03-01T00:20:28;42.33;;;32.50;;
1276;SDS011;631;51.024;13.826;2023-03-01T00:22:53;43.27;;;31.47;;
1276;SDS011;631;51.024;13.826;2023-03-01T00:25:19;44.10;;;32.60;;
1276;SDS011;631;51.024;13.826;2023-03-01T00:27:46;40.63;;;31.30;;
1276;SDS011;631;51.024;13.826;2023-03-01T00:30:11;49.10;;;33.03;;
1276;SDS011;631;51.024;13.826;2023-03-01T00:32:37;39.87;;;32.70;;
1276;SDS011;631;51.024;13.826;2023-03-01T00:35:03;46.27;;;33.70;;
1276;SDS011;631;51.024;13.826;2023-03-01T00:37:30;44.28;;;32.92;;
1276;SDS011;631;51.024;13.826;2023-03-01T00:39:56;43.43;;;31.87;;
1276;SDS011;631;51.024;13.826;2023-03-01T00:42:21;38.07;;;31.07;;
1276;SDS011;631;51.024;13.826;2023-03-01T00:44:48;41.83;;;31.85;;
1276;SDS011;631;51.024;13.826;2023-03-01T00:47:13;41.60;;;31.90;;
1276;SDS011;631;51.024;13.826;2023-03-01T00:49:39;41.33;;;31.47;;
1276;SDS011;631;51.024;13.826;2023-03-01T00:52:05;42.03;;;33.73;;
1276;SDS011;631;51.024;13.826;2023-03-01T00:54:30;40.53;;;32.03;;
1276;SDS011;631;51.024;13.826;2023-03-01T00:56:56;37.90;;;30.40;;
1276;SDS011;631;51.024;13.826;2023-03-01T00:59:22;39.07;;;31.33;;
1276;SDS011;631;51.024;13.826;2023-03-01T01:01:47;41.00;;;33.00;;
1276;SDS011;631;51.024;13.826;2023-03-01T01:04:13;39.13;;;30.67;;
1276;SDS011;631;51.024;13.826;2023-03-01T01:06:43;43.33;;;31.87;;
1276;SDS011;631;51.024;13.826;2023-03-01T01:09:11;41.05;;;31.98;;
1276;SDS011;631;51.024;13.826;2023-03-01T01:11:42;39.58;;;31.90;;
1276;SDS011;631;51.024;13.826;2023-03-01T01:14:09;40.90;;;31.02;;
1276;SDS011;631;51.024;13.826;2023-03-01T01:16:35;39.63;;;32.27;;
1276;SDS011;631;51.024;13.826;2023-03-01T01:19:01;39.67;;;31.40;;
1276;SDS011;631;51.024;13.826;2023-03-01T01:21:27;41.17;;;32.20;;
1276;SDS011;631;51.024;13.826;2023-03-01T01:23:53;43.25;;;32.30;;
1276;SDS011;631;51.024;13.826;2023-03-01T01:26:23;42.55;;;31.63;;
1276;SDS011;631;51.024;13.826;2023-03-01T01:28:51;42.85;;;31.55;;
1276;SDS011;631;51.024;13.826;2023-03-01T01:31:17;43.43;;;32.17;;
1276;SDS011;631;51.024;13.826;2023-03-01T01:33:43;44.00;;;33.30;;
1276;SDS011;631;51.024;13.826;2023-03-01T01:36:09;43.63;;;33.27;;
1276;SDS011;631;51.024;13.826;2023-03-01T01:38:35;41.55;;;32.75;;
1276;SDS011;631;51.024;13.826;2023-03-01T01:41:03;42.40;;;33.67;;
1276;SDS011;631;51.024;13.826;2023-03-01T01:43:33;42.15;;;32.92;;
1276;SDS011;631;51.024;13.826;2023-03-01T01:46:03;42.67;;;33.75;;
1276;SDS011;631;51.024;13.826;2023-03-01T01:48:52;45.78;;;34.20;;
1276;SDS011;631;51.024;13.826;2023-03-01T01:51:25;46.08;;;34.35;;
1276;SDS011;631;51.024;13.826;2023-03-01T01:54:03;42.35;;;33.92;;
1276;SDS011;631;51.024;13.826;2023-03-01T01:56:33;44.08;;;33.67;;
1276;SDS011;631;51.024;13.826;2023-03-01T01:58:59;44.50;;;32.50;;
1276;SDS011;631;51.024;13.826;2023-03-01T02:01:26;44.67;;;32.33;;
1276;SDS011;631;51.024;13.826;2023-03-01T02:03:52;48.03;;;34.50;;
1276;SDS011;631;51.024;13.826;2023-03-01T02:06:37;42.40;;;32.17;;
1276;SDS011;631;51.024;13.826;2023-03-01T02:09:07;46.63;;;32.47;;
1276;SDS011;631;51.024;13.826;2023-03-01T02:11:40;46.50;;;33.83;;
1276;SDS011;631;51.024;13.826;2023-03-01T02:14:06;38.42;;;31.48;;
1276;SDS011;631;51.024;13.826;2023-03-01T02:16:32;41.90;;;31.63;;
1276;SDS011;631;51.024;13.826;2023-03-01T02:18:58;47.38;;;32.20;;
1276;SDS011;631;51.024;13.826;2023-03-01T02:24:23;40.45;;;30.92;;
1276;SDS011;631;51.024;13.826;2023-03-01T02:27:14;45.22;;;33.10;;
1276;SDS011;631;51.024;13.826;2023-03-01T02:29:41;41.55;;;31.13;;
1276;SDS011;631;51.024;13.826;2023-03-01T02:32:09;42.47;;;31.58;;
1276;SDS011;631;51.024;13.826;2023-03-01T02:34:37;43.47;;;30.88;;
1276;SDS011;631;51.024;13.826;2023-03-01T02:37:06;42.72;;;31.85;;
1276;SDS011;631;51.024;13.826;2023-03-01T02:39:41;38.55;;;30.10;;
1276;SDS011;631;51.024;13.826;2023-03-01T02:42:12;39.35;;;29.50;;
1276;SDS011;631;51.024;13.826;2023-03-01T02:44:40;46.45;;;30.92;;
1276;SDS011;631;51.024;13.826;2023-03-01T02:47:06;42.93;;;29.80;;
1276;SDS011;631;51.024;13.826;2023-03-01T02:49:32;40.90;;;30.17;;
1276;SDS011;631;51.024;13.826;2023-03-01T02:54:48;36.85;;;30.08;;
1276;SDS011;631;51.024;13.826;2023-03-01T02:57:19;42.42;;;30.42;;
1276;SDS011;631;51.024;13.826;2023-03-01T02:59:46;44.63;;;31.30;;
1276;SDS011;631;51.024;13.826;2023-03-01T03:02:20;39.15;;;29.90;;
1276;SDS011;631;51.024;13.826;2023-03-01T03:05:07;37.80;;;29.50;;
1276;SDS011;631;51.024;13.826;2023-03-01T03:07:39;41.38;;;30.42;;
1276;SDS011;631;51.024;13.826;2023-03-01T03:10:08;42.25;;;30.85;;
1276;SDS011;631;51.024;13.826;2023-03-01T03:12:36;40.67;;;30.20;;
1276;SDS011;631;51.024;13.826;2023-03-01T03:15:03;38.65;;;29.13;;
1276;SDS011;631;51.024;13.826;2023-03-01T03:17:33;40.63;;;29.75;;
1276;SDS011;631;51.024;13.826;2023-03-01T03:20:00;38.95;;;28.27;;
1276;SDS011;631;51.024;13.826;2023-03-01T03:22:28;37.53;;;28.25;;
1276;SDS011;631;51.024;13.826;2023-03-01T03:24:53;41.93;;;31.47;;
1276;SDS011;631;51.024;13.826;2023-03-01T03:27:19;41.40;;;30.90;;
1276;SDS011;631;51.024;13.826;2023-03-01T03:29:44;39.13;;;29.00;;
1276;SDS011;631;51.024;13.826;2023-03-01T03:32:10;41.40;;;30.13;;
1276;SDS011;631;51.024;13.826;2023-03-01T03:34:36;42.80;;;31.57;;
1276;SDS011;631;51.024;13.826;2023-03-01T03:37:01;42.20;;;29.80;;
1276;SDS011;631;51.024;13.826;2023-03-01T03:39:27;44.90;;;30.73;;
1276;SDS011;631;51.024;13.826;2023-03-01T03:41:59;41.83;;;29.63;;
1276;SDS011;631;51.024;13.826;2023-03-01T03:44:25;40.55;;;30.50;;
1276;SDS011;631;51.024;13.826;2023-03-01T03:46:51;44.17;;;30.70;;
1276;SDS011;631;51.024;13.826;2023-03-01T03:49:16;36.97;;;29.73;;
1276;SDS011;631;51.024;13.826;2023-03-01T03:51:42;43.70;;;31.97;;
1276;SDS011;631;51.024;13.826;2023-03-01T03:54:10;38.92;;;29.83;;
1276;SDS011;631;51.024;13.826;2023-03-01T03:56:36;36.33;;;28.80;;
1276;SDS011;631;51.024;13.826;2023-03-01T03:59:01;41.40;;;29.10;;
1276;SDS011;631;51.024;13.826;2023-03-01T04:01:27;47.20;;;31.43;;
1276;SDS011;631;51.024;13.826;2023-03-01T04:03:52;41.23;;;29.40;;
1276;SDS011;631;51.024;13.826;2023-03-01T04:06:19;37.08;;;27.65;;
1276;SDS011;631;51.024;13.826;2023-03-01T04:08:45;44.70;;;30.80;;
1276;SDS011;631;51.024;13.826;2023-03-01T04:11:11;37.93;;;29.80;;
1276;SDS011;631;51.024;13.826;2023-03-01T04:13:54;44.72;;;29.65;;
1276;SDS011;631;51.024;13.826;2023-03-01T04:16:21;38.05;;;29.15;;
1276;SDS011;631;51.024;13.826;2023-03-01T04:18:48;39.13;;;29.45;;
1276;SDS011;631;51.024;13.826;2023-03-01T04:21:14;40.40;;;29.87;;
1276;SDS011;631;51.024;13.826;2023-03-01T04:23:39;40.10;;;30.80;;
1276;SDS011;631;51.024;13.826;2023-03-01T04:26:05;43.65;;;31.70;;
1276;SDS011;631;51.024;13.826;2023-03-01T04:28:35;41.43;;;30.27;;
1276;SDS011;631;51.024;13.826;2023-03-01T04:31:06;41.67;;;31.23;;
1276;SDS011;631;51.024;13.826;2023-03-01T04:33:41;40.78;;;29.13;;
1276;SDS011;631;51.024;13.826;2023-03-01T04:36:07;44.25;;;31.65;;
1276;SDS011;631;51.024;13.826;2023-03-01T04:38:34;40.05;;;29.10;;
1276;SDS011;631;51.024;13.826;2023-03-01T04:41:02;39.83;;;29.35;;
1276;SDS011;631;51.024;13.826;2023-03-01T04:43:32;41.17;;;29.80;;
1276;SDS011;631;51.024;13.826;2023-03-01T04:46:02;38.42;;;29.67;;
1276;SDS011;631;51.024;13.826;2023-03-01T04:48:31;41.45;;;29.05;;
1276;SDS011;631;51.024;13.826;2023-03-01T04:50:58;48.30;;;31.55;;
1276;SDS011;631;51.024;13.826;2023-03-01T04:53:24;44.30;;;29.70;;
1276;SDS011;631;51.024;13.826;2023-03-01T04:55:50;44.22;;;32.00;;
1276;SDS011;631;51.024;13.826;2023-03-01T04:58:16;42.90;;;30.67;;
1276;SDS011;631;51.024;13.826;2023-03-01T05:00:42;42.83;;;29.67;;
1276;SDS011;631;51.024;13.826;2023-03-01T05:03:07;40.03;;;29.50;;
1276;SDS011;631;51.024;13.826;2023-03-01T05:05:37;43.85;;;31.15;;
1276;SDS011;631;51.024;13.826;2023-03-01T05:08:05;39.97;;;29.55;;
1276;SDS011;631;51.024;13.826;2023-03-01T05:10:33;41.75;;;28.63;;
1276;SDS011;631;51.024;13.826;2023-03-01T05:13:00;41.40;;;29.63;;
1276;SDS011;631;51.024;13.826;2023-03-01T05:15:28;42.85;;;29.63;;
1276;SDS011;631;51.024;13.826;2023-03-01T05:17:56;45.63;;;28.15;;
1276;SDS011;631;51.024;13.826;2023-03-01T05:20:24;41.38;;;30.85;;
1276;SDS011;631;51.024;13.826;2023-03-01T05:22:57;36.78;;;27.13;;
1276;SDS011;631;51.024;13.826;2023-03-01T05:25:24;39.55;;;29.05;;
1276;SDS011;631;51.024;13.826;2023-03-01T05:27:50;41.20;;;30.77;;
1276;SDS011;631;51.024;13.826;2023-03-01T05:30:16;40.27;;;29.43;;
1276;SDS011;631;51.024;13.826;2023-03-01T05:32:43;44.17;;;31.30;;
1276;SDS011;631;51.024;13.826;2023-03-01T05:35:53;44.42;;;28.27;;
1276;SDS011;631;51.024;13.826;2023-03-01T05:39:07;40.88;;;29.00;;
1276;SDS011;631;51.024;13.826;2023-03-01T05:41:32;39.33;;;27.17;;
1276;SDS011;631;51.024;13.826;2023-03-01T05:43:58;36.53;;;28.63;;
1276;SDS011;631;51.024;13.826;2023-03-01T05:46:24;40.60;;;30.07;;
1276;SDS011;631;51.024;13.826;2023-03-01T05:48:49;42.50;;;29.13;;
1276;SDS011;631;51.024;13.826;2023-03-01T05:51:15;44.53;;;29.47;;
1276;SDS011;631;51.024;13.826;2023-03-01T05:53:40;46.40;;;30.60;;
1276;SDS011;631;51.024;13.826;2023-03-01T05:56:06;45.83;;;30.40;;
1276;SDS011;631;51.024;13.826;2023-03-01T05:58:33;38.47;;;28.73;;
1276;SDS011;631;51.024;13.826;2023-03-01T06:00:59;46.25;;;29.73;;
1276;SDS011;631;51.024;13.826;2023-03-01T06:03:25;48.60;;;30.90;;
1276;SDS011;631;51.024;13.826;2023-03-01T06:05:56;42.53;;;29.50;;
1276;SDS011;631;51.024;13.826;2023-03-01T06:08:23;44.63;;;29.33;;
1276;SDS011;631;51.024;13.826;2023-03-01T06:10:51;45.83;;;29.65;;
1276;SDS011;631;51.024;13.826;2023-03-01T06:13:17;42.30;;;27.87;;
1276;SDS011;631;51.024;13.826;2023-03-01T06:15:42;44.63;;;29.20;;
1276;SDS011;631;51.024;13.826;2023-03-01T06:18:08;43.27;;;28.67;;
1276;SDS011;631;51.024;13.826;2023-03-01T06:20:34;39.33;;;28.53;;
1276;SDS011;631;51.024;13.826;2023-03-01T06:23:00;45.38;;;29.73;;
1276;SDS011;631;51.024;13.826;2023-03-01T06:25:27;45.03;;;29.75;;
1276;SDS011;631;51.024;13.826;2023-03-01T06:27:53;39.80;;;28.40;;
1276;SDS011;631;51.024;13.826;2023-03-01T06:30:19;42.57;;;28.50;;
1276;SDS011;631;51.024;13.826;2023-03-01T06:32:46;42.80;;;27.98;;
1276;SDS011;631;51.024;13.826;2023-03-01T06:35:13;39.13;;;29.93;;
1276;SDS011;631;51.024;13.826;2023-03-01T06:37:42;48.08;;;34.90;;
1276;SDS011;631;51.024;13.826;2023-03-01T06:40:09;47.20;;;33.00;;
1276;SDS011;631;51.024;13.826;2023-03-01T06:42:36;43.72;;;30.20;;
1276;SDS011;631;51.024;13.826;2023-03-01T06:45:05;38.50;;;27.50;;
1276;SDS011;631;51.024;13.826;2023-03-01T06:47:32;42.20;;;30.20;;
1276;SDS011;631;51.024;13.826;2023-03-01T06:49:58;44.40;;;30.08;;
1276;SDS011;631;51.024;13.826;2023-03-01T06:52:24;39.38;;;29.38;;
1276;SDS011;631;51.024;13.826;2023-03-01T06:54:50;43.72;;;30.33;;
1276;SDS011;631;51.024;13.826;2023-03-01T06:57:16;39.87;;;28.00;;
1276;SDS011;631;51.024;13.826;2023-03-01T06:59:42;42.03;;;29.05;;
1276;SDS011;631;51.024;13.826;2023-03-01T07:02:11;42.03;;;28.63;;
1276;SDS011;631;51.024;13.826;2023-03-01T07:04:37;45.22;;;29.25;;
1276;SDS011;631;51.024;13.826;2023-03-01T07:07:04;42.90;;;29.15;;
1276;SDS011;631;51.024;13.826;2023-03-01T07:09:30;41.23;;;29.10;;
1276;SDS011;631;51.024;13.826;2023-03-01T07:11:56;46.00;;;30.15;;
1276;SDS011;631;51.024;13.826;2023-03-01T07:14:22;47.00;;;30.50;;
1276;SDS011;631;51.024;13.826;2023-03-01T07:16:50;46.08;;;31.40;;
1276;SDS011;631;51.024;13.826;2023-03-01T07:19:19;42.72;;;30.27;;
1276;SDS011;631;51.024;13.826;2023-03-01T07:21:47;49.60;;;31.70;;
1276;SDS011;631;51.024;13.826;2023-03-01T07:24:12;44.20;;;30.67;;
1276;SDS011;631;51.024;13.826;2023-03-01T07:26:38;37.90;;;28.00;;
1276;SDS011;631;51.024;13.826;2023-03-01T07:29:06;44.08;;;30.02;;
1276;SDS011;631;51.024;13.826;2023-03-01T07:31:34;47.35;;;31.08;;
1276;SDS011;631;51.024;13.826;2023-03-01T07:33:59;47.00;;;31.57;;
1276;SDS011;631;51.024;13.826;2023-03-01T07:36:25;43.03;;;30.87;;
1276;SDS011;631;51.024;13.826;2023-03-01T07:38:52;46.33;;;31.63;;
1276;SDS011;631;51.024;13.826;2023-03-01T07:41:18;43.33;;;30.50;;
1276;SDS011;631;51.024;13.826;2023-03-01T07:43:43;44.83;;;30.30;;
1276;SDS011;631;51.024;13.826;2023-03-01T07:46:09;46.20;;;30.43;;
1276;SDS011;631;51.024;13.826;2023-03-01T07:48:35;40.13;;;29.67;;
1276;SDS011;631;51.024;13.826;2023-03-01T07:51:01;40.83;;;30.37;;
1276;SDS011;631;51.024;13.826;2023-03-01T07:53:29;43.58;;;29.83;;
1276;SDS011;631;51.024;13.826;2023-03-01T07:56:06;39.78;;;28.80;;
1276;SDS011;631;51.024;13.826;2023-03-01T07:58:34;48.60;;;30.40;;
1276;SDS011;631;51.024;13.826;2023-03-01T08:01:02;40.63;;;29.00;;
1276;SDS011;631;51.024;13.826;2023-03-01T08:03:29;42.08;;;30.90;;
1276;SDS011;631;51.024;13.826;2023-03-01T08:05:54;41.70;;;28.80;;
1276;SDS011;631;51.024;13.826;2023-03-01T08:08:20;44.60;;;31.07;;
1276;SDS011;631;51.024;13.826;2023-03-01T08:10:45;44.40;;;30.47;;
1276;SDS011;631;51.024;13.826;2023-03-01T08:13:11;44.40;;;31.67;;
1276;SDS011;631;51.024;13.826;2023-03-01T08:15:37;42.03;;;30.20;;
1276;SDS011;631;51.024;13.826;2023-03-01T08:18:02;38.27;;;28.80;;
1276;SDS011;631;51.024;13.826;2023-03-01T08:20:28;41.47;;;30.90;;
1276;SDS011;631;51.024;13.826;2023-03-01T08:22:54;43.03;;;31.10;;
1276;SDS011;631;51.024;13.826;2023-03-01T08:25:19;44.77;;;32.47;;
1276;SDS011;631;51.024;13.826;2023-03-01T08:27:45;42.87;;;33.83;;
1276;SDS011;631;51.024;13.826;2023-03-01T08:30:11;42.03;;;34.80;;
1276;SDS011;631;51.024;13.826;2023-03-01T08:32:37;41.10;;;32.38;;
1276;SDS011;631;51.024;13.826;2023-03-01T08:35:04;37.10;;;29.73;;
1276;SDS011;631;51.024;13.826;2023-03-01T08:37:30;35.22;;;29.98;;
1276;SDS011;631;51.024;13.826;2023-03-01T08:39:58;34.63;;;30.13;;
1276;SDS011;631;51.024;13.826;2023-03-01T08:42:24;34.83;;;30.67;;
1276;SDS011;631;51.024;13.826;2023-03-01T08:44:50;31.20;;;27.90;;
1276;SDS011;631;51.024;13.826;2023-03-01T08:47:16;30.30;;;27.13;;
1276;SDS011;631;51.024;13.826;2023-03-01T08:49:42;33.47;;;28.00;;
1276;SDS011;631;51.024;13.826;2023-03-01T08:52:07;30.37;;;27.37;;
1276;SDS011;631;51.024;13.826;2023-03-01T08:54:33;32.50;;;29.20;;
1276;SDS011;631;51.024;13.826;2023-03-01T08:57:00;32.23;;;28.93;;
1276;SDS011;631;51.024;13.826;2023-03-01T08:59:27;32.00;;;28.70;;
1276;SDS011;631;51.024;13.826;2023-03-01T09:01:54;31.83;;;28.80;;
1276;SDS011;631;51.024;13.826;2023-03-01T09:04:21;32.07;;;29.07;;
1276;SDS011;631;51.024;13.826;2023-03-01T09:06:47;30.83;;;27.83;;
1276;SDS011;631;51.024;13.826;2023-03-01T09:09:16;32.77;;;29.57;;
1276;SDS011;631;51.024;13.826;2023-03-01T09:11:43;31.37;;;28.27;;
1276;SDS011;631;51.024;13.826;2023-03-01T09:14:11;31.20;;;28.30;;
1276;SDS011;631;51.024;13.826;2023-03-01T09:16:37;32.50;;;29.50;;
1276;SDS011;631;51.024;13.826;2023-03-01T09:19:03;34.67;;;31.37;;
1276;SDS011;631;51.024;13.826;2023-03-01T09:21:29;34.67;;;31.27;;
1276;SDS011;631;51.024;13.826;2023-03-01T09:23:56;35.13;;;31.73;;
1276;SDS011;631;51.024;13.826;2023-03-01T09:26:23;34.10;;;30.90;;
1276;SDS011;631;51.024;13.826;2023-03-01T09:28:50;34.67;;;31.27;;
1276;SDS011;631;51.024;13.826;2023-03-01T09:31:17;36.13;;;32.57;;
1276;SDS011;631;51.024;13.826;2023-03-01T09:33:48;35.10;;;31.90;;
1276;SDS011;631;51.024;13.826;2023-03-01T09:36:19;33.97;;;30.47;;
1276;SDS011;631;51.024;13.826;2023-03-01T09:38:47;35.13;;;31.73;;
1276;SDS011;631;51.024;13.826;2023-03-01T09:43:45;34.20;;;30.90;;
1276;SDS011;631;51.024;13.826;2023-03-01T09:46:18;34.37;;;30.87;;
1276;SDS011;631;51.024;13.826;2023-03-01T09:51:32;35.00;;;31.70;;
1276;SDS011;631;51.024;13.826;2023-03-01T09:54:02;36.07;;;32.77;;
1276;SDS011;631;51.024;13.826;2023-03-01T10:02:42;35.90;;;32.50;;
1276;SDS011;631;51.024;13.826;2023-03-01T10:08:25;35.03;;;31.80;;
1276;SDS011;631;51.024;13.826;2023-03-01T10:10:58;34.50;;;31.30;;
1276;SDS011;631;51.024;13.826;2023-03-01T10:16:21;34.10;;;31.00;;
1276;SDS011;631;51.024;13.826;2023-03-01T10:19:00;34.10;;;31.10;;
1276;SDS011;631;51.024;13.826;2023-03-01T10:21:28;33.43;;;30.30;;
1276;SDS011;631;51.024;13.826;2023-03-01T10:23:56;36.73;;;33.20;;
1276;SDS011;631;51.024;13.826;2023-03-01T10:29:26;34.07;;;30.77;;
1276;SDS011;631;51.024;13.826;2023-03-01T10:31:59;34.90;;;31.50;;
1276;SDS011;631;51.024;13.826;2023-03-01T10:34:29;33.00;;;29.93;;
1276;SDS011;631;51.024;13.826;2023-03-01T10:36:57;32.63;;;29.83;;
1276;SDS011;631;51.024;13.826;2023-03-01T10:39:57;32.50;;;29.60;;
1276;SDS011;631;51.024;13.826;2023-03-01T10:42:34;32.80;;;29.90;;
1276;SDS011;631;51.024;13.826;2023-03-01T10:45:17;28.53;;;25.63;;
1276;SDS011;631;51.024;13.826;2023-03-01T10:48:04;27.97;;;25.53;;
1276;SDS011;631;51.024;13.826;2023-03-01T10:50:30;27.50;;;25.10;;
1276;SDS011;631;51.024;13.826;2023-03-01T10:53:03;31.80;;;28.97;;
1276;SDS011;631;51.024;13.826;2023-03-01T10:55:36;29.90;;;27.40;;
1276;SDS011;631;51.024;13.826;2023-03-01T10:58:21;28.23;;;26.00;;
1276;SDS011;631;51.024;13.826;2023-03-01T11:03:19;27.80;;;25.60;;
1276;SDS011;631;51.024;13.826;2023-03-01T11:05:55;28.40;;;26.10;;
1276;SDS011;631;51.024;13.826;2023-03-01T11:08:33;27.50;;;25.30;;
1276;SDS011;631;51.024;13.826;2023-03-01T11:13:30;29.10;;;26.53;;
1276;SDS011;631;51.024;13.826;2023-03-01T11:16:04;27.00;;;24.80;;
1276;SDS011;631;51.024;13.826;2023-03-01T11:18:32;28.63;;;26.33;;
1276;SDS011;631;51.024;13.826;2023-03-01T11:20:58;28.53;;;26.23;;
1276;SDS011;631;51.024;13.826;2023-03-01T11:23:25;28.93;;;26.53;;
1276;SDS011;631;51.024;13.826;2023-03-01T11:25:57;29.33;;;26.83;;
1276;SDS011;631;51.024;13.826;2023-03-01T11:28:27;28.40;;;26.10;;
1276;SDS011;631;51.024;13.826;2023-03-01T11:36:10;28.60;;;26.20;;
1276;SDS011;631;51.024;13.826;2023-03-01T11:38:38;29.97;;;27.33;;
1276;SDS011;631;51.024;13.826;2023-03-01T11:41:10;29.80;;;27.40;;
1276;SDS011;631;51.024;13.826;2023-03-01T11:56:54;28.80;;;26.40;;
1276;SDS011;631;51.024;13.826;2023-03-01T12:02:25;27.53;;;25.33;;
1276;SDS011;631;51.024;13.826;2023-03-01T12:08:47;27.80;;;25.50;;
1276;SDS011;631;51.024;13.826;2023-03-01T12:22:35;33.03;;;30.23;;
1276;SDS011;631;51.024;13.826;2023-03-01T12:31:06;32.10;;;29.47;;
1276;SDS011;631;51.024;13.826;2023-03-01T12:33:51;31.80;;;29.10;;
1276;SDS011;631;51.024;13.826;2023-03-01T12:45:05;34.30;;;31.50;;
1276;SDS011;631;51.024;13.826;2023-03-01T12:50:28;32.93;;;30.13;;
1276;SDS011;631;51.024;13.826;2023-03-01T12:53:10;32.77;;;30.17;;
1276;SDS011;631;51.024;13.826;2023-03-01T12:55:43;32.67;;;30.00;;
1276;SDS011;631;51.024;13.826;2023-03-01T12:58:30;35.30;;;32.37;;
1276;SDS011;631;51.024;13.826;2023-03-01T13:03:55;34.37;;;31.47;;
1276;SDS011;631;51.024;13.826;2023-03-01T13:17:55;36.57;;;33.27;;
1276;SDS011;631;51.024;13.826;2023-03-01T13:20:29;33.67;;;30.67;;
1276;SDS011;631;51.024;13.826;2023-03-01T13:25:30;32.67;;;30.00;;
1276;SDS011;631;51.024;13.826;2023-03-01T13:28:32;35.43;;;32.33;;
1276;SDS011;631;51.024;13.826;2023-03-01T13:30:57;32.60;;;29.80;;
1276;SDS011;631;51.024;13.826;2023-03-01T13:35:52;30.30;;;27.80;;
1276;SDS011;631;51.024;13.826;2023-03-01T13:41:48;30.07;;;27.50;;
1276;SDS011;631;51.024;13.826;2023-03-01T13:46:57;32.87;;;30.10;;
1276;SDS011;631;51.024;13.826;2023-03-01T13:49:47;29.67;;;27.10;;
1276;SDS011;631;51.024;13.826;2023-03-01T13:52:28;33.50;;;30.63;;
1276;SDS011;631;51.024;13.826;2023-03-01T13:54:58;32.90;;;30.07;;
1276;SDS011;631;51.024;13.826;2023-03-01T13:57:28;31.27;;;28.53;;
1276;SDS011;631;51.024;13.826;2023-03-01T13:59:59;31.63;;;29.03;;
1276;SDS011;631;51.024;13.826;2023-03-01T14:02:24;32.27;;;29.57;;
1276;SDS011;631;51.024;13.826;2023-03-01T14:04:57;31.97;;;29.07;;
1276;SDS011;631;51.024;13.826;2023-03-01T14:07:23;33.73;;;30.83;;
1276;SDS011;631;51.024;13.826;2023-03-01T14:09:53;31.93;;;29.03;;
1276;SDS011;631;51.024;13.826;2023-03-01T14:15:27;32.03;;;29.20;;
1276;SDS011;631;51.024;13.826;2023-03-01T14:20:30;32.13;;;29.23;;
1276;SDS011;631;51.024;13.826;2023-03-01T14:23:17;30.70;;;28.10;;
1276;SDS011;631;51.024;13.826;2023-03-01T14:25:50;33.17;;;30.27;;
1276;SDS011;631;51.024;13.826;2023-03-01T14:28:23;31.17;;;28.40;;
1276;SDS011;631;51.024;13.826;2023-03-01T14:30:59;32.80;;;30.00;;
1276;SDS011;631;51.024;13.826;2023-03-01T14:35:52;29.77;;;27.17;;
1276;SDS011;631;51.024;13.826;2023-03-01T14:38:21;30.00;;;27.40;;
1276;SDS011;631;51.024;13.826;2023-03-01T14:41:00;31.00;;;28.30;;
1276;SDS011;631;51.024;13.826;2023-03-01T14:43:29;34.17;;;31.17;;
1276;SDS011;631;51.024;13.826;2023-03-01T14:45:56;31.80;;;29.10;;
1276;SDS011;631;51.024;13.826;2023-03-01T14:48:22;30.90;;;28.10;;
1276;SDS011;631;51.024;13.826;2023-03-01T14:50:49;30.50;;;27.80;;
1276;SDS011;631;51.024;13.826;2023-03-01T14:53:20;32.67;;;29.87;;
1276;SDS011;631;51.024;13.826;2023-03-01T14:55:50;38.17;;;34.77;;
1276;SDS011;631;51.024;13.826;2023-03-01T14:58:19;30.97;;;28.27;;
1276;SDS011;631;51.024;13.826;2023-03-01T15:00:50;32.13;;;29.33;;
1276;SDS011;631;51.024;13.826;2023-03-01T15:06:00;32.83;;;30.03;;
1276;SDS011;631;51.024;13.826;2023-03-01T15:08:27;32.20;;;29.10;;
1276;SDS011;631;51.024;13.826;2023-03-01T15:13:28;32.17;;;29.07;;
1276;SDS011;631;51.024;13.826;2023-03-01T15:16:12;33.27;;;30.03;;
1276;SDS011;631;51.024;13.826;2023-03-01T15:18:51;31.30;;;28.60;;
1276;SDS011;631;51.024;13.826;2023-03-01T15:21:23;31.67;;;28.77;;
1276;SDS011;631;51.024;13.826;2023-03-01T15:23:53;31.33;;;28.40;;
1276;SDS011;631;51.024;13.826;2023-03-01T15:26:56;30.77;;;27.70;;
1276;SDS011;631;51.024;13.826;2023-03-01T15:29:32;28.97;;;26.30;;
1276;SDS011;631;51.024;13.826;2023-03-01T15:32:20;29.93;;;27.07;;
1276;SDS011;631;51.024;13.826;2023-03-01T15:34:58;29.17;;;26.50;;
1276;SDS011;631;51.024;13.826;2023-03-01T15:37:44;27.50;;;25.00;;
1276;SDS011;631;51.024;13.826;2023-03-01T15:40:20;27.30;;;24.70;;
1276;SDS011;631;51.024;13.826;2023-03-01T15:43:03;28.13;;;25.63;;
1276;SDS011;631;51.024;13.826;2023-03-01T15:45:31;27.77;;;25.27;;
1276;SDS011;631;51.024;13.826;2023-03-01T15:48:04;27.27;;;24.60;;
1276;SDS011;631;51.024;13.826;2023-03-01T15:50:42;28.40;;;25.77;;
1276;SDS011;631;51.024;13.826;2023-03-01T15:53:12;28.13;;;25.30;;
1276;SDS011;631;51.024;13.826;2023-03-01T15:55:39;29.63;;;26.80;;
1276;SDS011;631;51.024;13.826;2023-03-01T15:58:19;27.70;;;25.07;;
1276;SDS011;631;51.024;13.826;2023-03-01T16:00:47;28.30;;;25.53;;
1276;SDS011;631;51.024;13.826;2023-03-01T16:03:16;28.80;;;26.10;;
1276;SDS011;631;51.024;13.826;2023-03-01T16:05:46;29.10;;;26.33;;
1276;SDS011;631;51.024;13.826;2023-03-01T16:08:13;26.97;;;24.47;;
1276;SDS011;631;51.024;13.826;2023-03-01T16:10:39;29.80;;;26.97;;
1276;SDS011;631;51.024;13.826;2023-03-01T16:13:06;27.60;;;24.73;;
1276;SDS011;631;51.024;13.826;2023-03-01T16:15:32;27.77;;;25.10;;
1276;SDS011;631;51.024;13.826;2023-03-01T16:18:01;27.07;;;24.33;;
1276;SDS011;631;51.024;13.826;2023-03-01T16:20:28;28.83;;;25.20;;
1276;SDS011;631;51.024;13.826;2023-03-01T16:22:55;28.73;;;25.83;;
1276;SDS011;631;51.024;13.826;2023-03-01T16:25:27;27.50;;;24.93;;
1276;SDS011;631;51.024;13.826;2023-03-01T16:27:54;27.50;;;25.00;;
1276;SDS011;631;51.024;13.826;2023-03-01T16:30:21;27.30;;;24.50;;
1276;SDS011;631;51.024;13.826;2023-03-01T16:32:47;28.90;;;26.07;;
1276;SDS011;631;51.024;13.826;2023-03-01T16:35:15;28.27;;;25.47;;
1276;SDS011;631;51.024;13.826;2023-03-01T16:37:42;26.33;;;23.70;;
1276;SDS011;631;51.024;13.826;2023-03-01T16:40:16;29.43;;;23.03;;
1276;SDS011;631;51.024;13.826;2023-03-01T16:42:45;27.07;;;24.47;;
1276;SDS011;631;51.024;13.826;2023-03-01T16:45:15;27.13;;;24.48;;
1276;SDS011;631;51.024;13.826;2023-03-01T16:47:41;28.98;;;25.98;;
1276;SDS011;631;51.024;13.826;2023-03-01T16:50:09;28.60;;;25.80;;
1276;SDS011;631;51.024;13.826;2023-03-01T16:52:35;27.17;;;24.27;;
1276;SDS011;631;51.024;13.826;2023-03-01T16:55:04;28.53;;;25.60;;
1276;SDS011;631;51.024;13.826;2023-03-01T16:57:33;27.88;;;25.13;;
1276;SDS011;631;51.024;13.826;2023-03-01T16:59:59;29.65;;;26.65;;
1276;SDS011;631;51.024;13.826;2023-03-01T17:02:24;28.20;;;25.37;;
1276;SDS011;631;51.024;13.826;2023-03-01T17:04:51;29.42;;;26.33;;